createdAt,value
2019-05-16T00:00:08.392Z,31.80
2019-05-16T00:02:41.622Z,32.50
2019-05-16T00:05:14.997Z,33.07
2019-05-16T00:07:48.993Z,33.43
2019-05-16T00:10:23.119Z,32.67
2019-05-16T00:12:59.246Z,31.13
2019-05-16T00:15:30.553Z,31.13
2019-05-16T00:18:08.733Z,30.50
2019-05-16T00:20:40.698Z,31.20
2019-05-16T00:23:18.191Z,31.03
2019-05-16T00:25:48.120Z,30.73
2019-05-16T00:28:18.321Z,29.77
2019-05-16T00:30:51.762Z,30.23
2019-05-16T00:33:23.739Z,29.57
2019-05-16T00:36:02.548Z,29.37
2019-05-16T00:38:27.738Z,30.87
2019-05-16T00:40:58.912Z,27.83
2019-05-16T00:43:31.117Z,28.53
2019-05-16T00:46:03.213Z,28.40
2019-05-16T00:48:32.760Z,28.17
2019-05-16T00:51:04.422Z,28.13
2019-05-16T00:53:33.930Z,28.77
2019-05-16T00:56:05.096Z,28.17
2019-05-16T00:58:37.818Z,27.53
2019-05-16T01:01:08.500Z,26.37
2019-05-16T01:03:40.185Z,27.53
2019-05-16T01:06:19.241Z,27.87
2019-05-16T01:08:42.422Z,26.73
2019-05-16T01:11:15.777Z,26.83
2019-05-16T01:13:44.928Z,26.90
2019-05-16T01:16:14.405Z,26.90
2019-05-16T01:18:45.385Z,27.30
2019-05-16T01:21:18.381Z,25.83
2019-05-16T01:23:48.189Z,27.73
2019-05-16T01:26:22.510Z,26.90
2019-05-16T01:28:53.621Z,26.20
2019-05-16T01:31:24.210Z,26.73
2019-05-16T01:33:54.557Z,26.33
2019-05-16T01:36:34.277Z,26.77
2019-05-16T01:38:58.454Z,26.07
2019-05-16T01:41:28.475Z,26.90
2019-05-16T01:43:58.571Z,25.83
2019-05-16T01:46:28.463Z,26.17
2019-05-16T01:48:59.108Z,26.37
2019-05-16T01:51:29.629Z,25.63
2019-05-16T01:54:00.288Z,25.80
2019-05-16T01:56:29.738Z,25.13
2019-05-16T01:59:00.449Z,25.17
2019-05-16T02:01:32.428Z,24.20
2019-05-16T02:04:12.350Z,25.07
2019-05-16T02:06:51.693Z,25.90
2019-05-16T02:09:18.964Z,24.60
2019-05-16T02:11:59.117Z,24.33
2019-05-16T02:14:25.718Z,23.33
2019-05-16T02:16:59.768Z,22.80
2019-05-16T02:19:29.877Z,22.23
2019-05-16T02:21:59.704Z,23.63
2019-05-16T02:24:30.590Z,23.17
2019-05-16T02:27:00.963Z,23.03
2019-05-16T02:29:31.969Z,23.23
2019-05-16T02:32:02.136Z,21.13
2019-05-16T02:34:32.424Z,23.07
2019-05-16T02:40:00.968Z,22.53
2019-05-16T02:42:31.469Z,21.80
2019-05-16T02:45:02.776Z,21.10
2019-05-16T02:47:36.204Z,22.53
2019-05-16T02:50:12.271Z,21.90
2019-05-16T02:52:43.713Z,22.33
2019-05-16T02:55:13.860Z,22.07
2019-05-16T02:57:47.513Z,21.80
2019-05-16T03:00:43.131Z,22.03
2019-05-16T03:03:16.171Z,22.40
2019-05-16T03:05:50.586Z,21.87
2019-05-16T03:08:21.219Z,22.23
2019-05-16T03:10:52.305Z,22.50
2019-05-16T03:13:23.016Z,22.60
2019-05-16T03:15:52.454Z,22.27
2019-05-16T03:18:31.028Z,21.20
2019-05-16T03:21:11.074Z,21.43
2019-05-16T03:23:42.986Z,22.10
2019-05-16T03:26:22.271Z,23.60
2019-05-16T03:29:00.740Z,25.57
2019-05-16T03:31:34.552Z,26.47
2019-05-16T03:34:08.156Z,28.03
2019-05-16T03:36:43.924Z,30.37
2019-05-16T03:39:13.511Z,28.87
2019-05-16T03:41:45.156Z,24.53
2019-05-16T03:44:20.762Z,24.30
2019-05-16T03:46:52.346Z,24.60
2019-05-16T03:49:21.860Z,22.70
2019-05-16T03:51:52.445Z,23.30
2019-05-16T03:54:23.136Z,22.67
2019-05-16T03:56:53.355Z,22.80
2019-05-16T03:59:24.019Z,22.50
2019-05-16T04:01:56.067Z,22.23
2019-05-16T04:04:27.431Z,22.57
2019-05-16T04:06:56.900Z,22.33
2019-05-16T04:09:31.653Z,21.20
2019-05-16T04:12:02.444Z,21.13
2019-05-16T04:14:32.979Z,21.43
2019-05-16T04:17:02.490Z,22.53
2019-05-16T04:19:37.704Z,21.87
2019-05-16T04:22:11.018Z,20.63
2019-05-16T04:24:42.674Z,22.10
2019-05-16T04:27:12.346Z,20.87
2019-05-16T04:29:41.755Z,20.93
2019-05-16T04:32:11.637Z,22.40
2019-05-16T04:34:41.950Z,21.47
2019-05-16T04:37:11.625Z,20.87
2019-05-16T04:39:41.563Z,21.90
2019-05-16T04:42:11.263Z,20.77
2019-05-16T04:44:42.240Z,20.37
2019-05-16T04:47:14.355Z,21.17
2019-05-16T04:49:44.108Z,21.27
2019-05-16T04:52:13.596Z,21.57
2019-05-16T04:54:43.042Z,20.73
2019-05-16T04:57:20.943Z,20.13
2019-05-16T04:59:54.179Z,20.10
2019-05-16T05:02:24.633Z,18.67
2019-05-16T05:05:01.249Z,17.37
2019-05-16T05:07:34.268Z,18.67
2019-05-16T05:10:10.963Z,17.17
2019-05-16T05:12:41.293Z,17.37
2019-05-16T05:15:12.591Z,16.63
2019-05-16T05:17:46.232Z,16.80
2019-05-16T05:20:17.377Z,16.67
2019-05-16T05:22:46.896Z,17.73
2019-05-16T05:25:17.194Z,18.73
2019-05-16T05:27:51.667Z,20.23
2019-05-16T05:30:25.538Z,20.87
2019-05-16T05:32:54.995Z,20.17
2019-05-16T05:35:25.044Z,21.00
2019-05-16T05:37:54.797Z,22.03
2019-05-16T05:40:24.243Z,21.20
2019-05-16T05:42:55.195Z,22.70
2019-05-16T05:45:27.716Z,23.93
2019-05-16T05:48:00.171Z,23.73
2019-05-16T05:50:30.744Z,24.20
2019-05-16T05:53:01.785Z,24.40
2019-05-16T05:55:31.545Z,21.70
2019-05-16T05:58:02.886Z,24.07
2019-05-16T06:00:41.180Z,24.70
2019-05-16T06:03:13.391Z,25.20
2019-05-16T06:05:44.496Z,24.40
2019-05-16T06:08:15.511Z,23.93
2019-05-16T06:10:45.137Z,25.43
2019-05-16T06:13:16.123Z,25.13
2019-05-16T06:15:51.599Z,24.30
2019-05-16T06:18:22.234Z,25.23
2019-05-16T06:20:52.738Z,25.03
2019-05-16T06:23:23.455Z,25.07
2019-05-16T06:25:54.502Z,24.13
2019-05-16T06:28:26.670Z,25.30
2019-05-16T06:30:56.397Z,23.93
2019-05-16T06:33:26.863Z,24.27
2019-05-16T06:36:00.493Z,24.53
2019-05-16T06:38:30.110Z,24.50
2019-05-16T06:41:00.304Z,24.97
2019-05-16T06:43:35.199Z,24.67
2019-05-16T06:46:05.699Z,25.00
2019-05-16T06:48:35.279Z,24.83
2019-05-16T06:51:04.823Z,24.97
2019-05-16T06:53:34.698Z,25.93
2019-05-16T06:56:04.435Z,25.83
2019-05-16T06:58:44.800Z,25.47
2019-05-16T07:01:06.538Z,25.50
2019-05-16T07:03:36.327Z,25.77
2019-05-16T07:06:07.045Z,25.83
2019-05-16T07:08:40.395Z,25.43
2019-05-16T07:11:12.786Z,24.63
2019-05-16T07:13:42.245Z,24.70
2019-05-16T07:16:11.761Z,25.90
2019-05-16T07:18:42.049Z,23.93
2019-05-16T07:21:14.385Z,24.63
2019-05-16T07:23:43.856Z,24.87
2019-05-16T07:26:14.563Z,23.93
2019-05-16T07:28:53.258Z,23.70
2019-05-16T07:31:29.838Z,27.67
2019-05-16T07:34:00.952Z,24.93
2019-05-16T07:36:31.666Z,26.23
2019-05-16T07:39:02.083Z,23.93
2019-05-16T07:41:32.023Z,23.90
2019-05-16T07:44:02.417Z,22.97
2019-05-16T07:46:31.864Z,23.03
2019-05-16T07:49:01.472Z,20.73
2019-05-16T07:51:31.170Z,21.37
2019-05-16T07:54:02.014Z,21.93
2019-05-16T07:56:31.530Z,21.87
2019-05-16T07:59:01.161Z,21.63
2019-05-16T08:01:31.612Z,19.43
2019-05-16T08:04:01.050Z,20.10
2019-05-16T08:06:40.498Z,19.40
2019-05-16T08:09:09.207Z,18.80
2019-05-16T08:11:40.883Z,12.93
2019-05-16T08:14:12.665Z,8.53
2019-05-16T08:16:51.684Z,7.13
2019-05-16T08:19:25.385Z,9.03
2019-05-16T08:22:01.052Z,12.20
2019-05-16T08:24:30.970Z,8.73
2019-05-16T08:27:01.504Z,7.70
2019-05-16T08:29:31.676Z,7.20
2019-05-16T08:32:02.828Z,6.43
2019-05-16T08:34:33.877Z,6.07
2019-05-16T08:37:03.422Z,6.23
2019-05-16T08:39:32.896Z,6.20
2019-05-16T08:42:08.057Z,5.73
2019-05-16T08:44:41.840Z,6.03
2019-05-16T08:47:11.927Z,6.53
2019-05-16T08:49:42.132Z,6.80
2019-05-16T08:52:12.932Z,7.10
2019-05-16T08:54:44.152Z,10.73
2019-05-16T08:57:27.165Z,14.93
2019-05-16T08:59:45.727Z,18.27
2019-05-16T09:02:15.198Z,20.07
2019-05-16T09:04:44.864Z,22.50
2019-05-16T09:07:14.283Z,22.17
2019-05-16T09:09:49.355Z,23.77
2019-05-16T09:12:17.541Z,23.40
2019-05-16T09:14:54.190Z,24.93
2019-05-16T09:17:20.739Z,26.73
2019-05-16T09:19:50.754Z,27.97
2019-05-16T09:22:20.281Z,28.63
2019-05-16T09:24:49.833Z,28.87
2019-05-16T09:27:19.391Z,23.93
2019-05-16T09:29:48.876Z,22.57
2019-05-16T09:32:21.610Z,22.40
2019-05-16T09:34:52.169Z,22.97
2019-05-16T09:37:26.575Z,23.70
2019-05-16T09:39:57.226Z,26.03
2019-05-16T09:42:28.511Z,28.40
2019-05-16T09:45:00.715Z,27.13
2019-05-16T09:47:33.441Z,28.47
2019-05-16T09:50:03.872Z,29.30
2019-05-16T09:52:33.464Z,31.07
2019-05-16T09:55:03.026Z,32.30
2019-05-16T09:57:32.631Z,31.70
2019-05-16T10:00:02.186Z,31.30
2019-05-16T10:02:36.540Z,30.10
2019-05-16T10:05:12.728Z,30.53
2019-05-16T10:07:38.793Z,30.23
2019-05-16T10:10:10.734Z,29.23
2019-05-16T10:12:41.643Z,30.50
2019-05-16T10:15:17.665Z,30.17
2019-05-16T10:17:50.537Z,30.73
2019-05-16T10:20:27.206Z,30.23
2019-05-16T10:23:14.359Z,29.80
2019-05-16T10:25:42.483Z,30.20
2019-05-16T10:28:12.150Z,31.00
2019-05-16T10:30:43.242Z,29.63
2019-05-16T10:33:18.894Z,31.47
2019-05-16T10:35:52.960Z,30.77
2019-05-16T10:38:28.577Z,32.17
2019-05-16T10:40:58.428Z,31.73
2019-05-16T10:43:28.047Z,30.60
2019-05-16T10:45:57.572Z,30.50
2019-05-16T10:48:27.245Z,28.77
2019-05-16T10:50:57.845Z,31.07
2019-05-16T10:53:50.377Z,31.37
2019-05-16T10:55:58.747Z,30.63
2019-05-16T10:58:36.455Z,30.60
2019-05-16T11:03:30.814Z,29.93
2019-05-16T11:06:05.801Z,29.93
2019-05-16T11:08:37.155Z,30.10
2019-05-16T11:11:08.710Z,28.70
2019-05-16T11:14:00.789Z,30.30
2019-05-16T11:16:31.779Z,28.57
2019-05-16T11:19:14.123Z,30.67
2019-05-16T11:21:37.540Z,30.23
2019-05-16T11:24:13.487Z,30.93
2019-05-16T11:26:47.381Z,30.53
2019-05-16T11:29:16.958Z,29.27
2019-05-16T11:31:52.053Z,30.30
2019-05-16T11:34:22.043Z,33.03
2019-05-16T11:36:51.633Z,34.10
2019-05-16T11:39:21.355Z,34.57
2019-05-16T11:41:50.885Z,31.90
2019-05-16T11:44:20.347Z,30.60
2019-05-16T11:46:49.846Z,32.10
2019-05-16T11:49:19.294Z,32.50
2019-05-16T11:51:48.807Z,33.57
2019-05-16T11:54:19.943Z,31.10
2019-05-16T11:56:49.443Z,30.97
2019-05-16T11:59:19.957Z,30.93
2019-05-16T12:01:50.969Z,29.43
2019-05-16T12:04:23.742Z,31.50
2019-05-16T12:06:57.306Z,29.83
2019-05-16T12:09:33.182Z,28.70
2019-05-16T12:12:04.284Z,29.20
2019-05-16T12:14:31.961Z,28.43
2019-05-16T12:17:01.412Z,30.57
2019-05-16T12:19:33.878Z,28.43
2019-05-16T12:22:02.021Z,28.90
2019-05-16T12:24:37.164Z,27.77
2019-05-16T12:27:02.596Z,27.20
2019-05-16T12:29:38.031Z,28.50
2019-05-16T12:32:08.165Z,26.40
2019-05-16T12:34:37.779Z,26.60
2019-05-16T12:37:07.729Z,27.33
2019-05-16T12:39:38.246Z,27.00
2019-05-16T12:42:08.401Z,28.23
2019-05-16T12:44:38.125Z,25.77
2019-05-16T12:47:07.792Z,26.20
2019-05-16T12:49:37.354Z,25.07
2019-05-16T12:52:07.630Z,25.57
2019-05-16T12:54:38.133Z,24.23
2019-05-16T12:57:07.722Z,24.40
2019-05-16T12:59:37.730Z,23.97
2019-05-16T13:02:08.400Z,23.40
2019-05-16T13:04:38.633Z,23.93
2019-05-16T13:07:09.709Z,23.57
2019-05-16T13:09:43.591Z,23.00
2019-05-16T13:12:17.531Z,23.13
2019-05-16T13:14:48.594Z,23.13
2019-05-16T13:17:18.073Z,21.27
2019-05-16T13:19:48.894Z,23.97
2019-05-16T13:22:38.058Z,22.30
2019-05-16T13:25:07.682Z,21.27
2019-05-16T13:27:37.641Z,22.83
2019-05-16T13:30:09.171Z,21.47
2019-05-16T13:32:42.484Z,21.43
2019-05-16T13:35:19.433Z,22.27
2019-05-16T13:37:48.886Z,22.57
2019-05-16T13:40:22.902Z,21.47
2019-05-16T13:42:57.434Z,23.37
2019-05-16T13:45:28.902Z,23.20
2019-05-16T13:47:58.269Z,23.53
2019-05-16T13:50:30.286Z,22.03
2019-05-16T13:53:03.128Z,25.03
2019-05-16T13:55:37.769Z,23.77
2019-05-16T13:58:09.140Z,22.33
2019-05-16T14:00:57.307Z,21.93
2019-05-16T14:03:32.680Z,22.73
2019-05-16T14:06:07.172Z,23.13
2019-05-16T14:08:37.279Z,22.37
2019-05-16T14:11:13.568Z,22.50
2019-05-16T14:13:46.986Z,21.40
2019-05-16T14:16:17.982Z,19.73
2019-05-16T14:18:47.664Z,20.10
2019-05-16T14:21:22.053Z,20.10
2019-05-16T14:24:05.163Z,19.43
2019-05-16T14:26:37.131Z,19.87
2019-05-16T14:29:08.058Z,21.97
2019-05-16T14:31:38.031Z,21.57
2019-05-16T14:34:10.816Z,22.20
2019-05-16T14:36:41.351Z,23.00
2019-05-16T14:39:12.118Z,20.67
2019-05-16T14:41:42.056Z,21.27
2019-05-16T14:44:17.991Z,19.90
2019-05-16T14:46:47.475Z,19.07
2019-05-16T14:49:18.320Z,18.97
2019-05-16T14:51:48.477Z,18.23
2019-05-16T14:54:18.537Z,18.73
2019-05-16T14:56:52.150Z,18.60
2019-05-16T14:59:27.131Z,19.03
2019-05-16T15:01:58.404Z,17.83
2019-05-16T15:04:37.399Z,17.07
2019-05-16T15:07:06.954Z,16.33
2019-05-16T15:09:38.093Z,16.40
2019-05-16T15:12:09.300Z,16.20
2019-05-16T15:14:48.958Z,16.70
2019-05-16T15:17:23.405Z,15.23
2019-05-16T15:19:57.809Z,15.73
2019-05-16T15:22:28.908Z,15.20
2019-05-16T15:24:59.569Z,15.07
2019-05-16T15:27:29.046Z,14.73
2019-05-16T15:29:58.509Z,14.83
2019-05-16T15:32:31.580Z,14.90
2019-05-16T15:35:02.126Z,14.40
2019-05-16T15:37:37.185Z,14.60
2019-05-16T15:40:08.524Z,15.10
2019-05-16T15:42:38.115Z,14.63
2019-05-16T15:45:09.811Z,17.77
2019-05-16T15:47:50.453Z,16.70
2019-05-16T15:50:27.932Z,15.35
2019-05-16T15:52:58.929Z,15.70
2019-05-16T15:55:27.168Z,14.40
2019-05-16T15:57:56.968Z,15.10
2019-05-16T16:00:48.695Z,14.63
2019-05-16T16:03:19.056Z,14.13
2019-05-16T16:05:48.565Z,15.18
2019-05-16T16:08:18.573Z,17.65
2019-05-16T16:10:49.063Z,15.10
2019-05-16T16:13:20.081Z,16.75
2019-05-16T16:15:54.577Z,14.73
2019-05-16T16:18:27.077Z,14.58
2019-05-16T16:20:57.201Z,13.80
2019-05-16T16:23:28.972Z,15.70
2019-05-16T16:25:59.763Z,15.15
2019-05-16T16:28:32.463Z,15.32
2019-05-16T16:31:04.048Z,14.68
2019-05-16T16:33:33.670Z,15.25
2019-05-16T16:36:07.569Z,17.37
2019-05-16T16:38:37.065Z,13.75
2019-05-16T16:41:09.687Z,15.20
2019-05-16T16:43:39.249Z,14.80
2019-05-16T16:46:13.237Z,15.23
2019-05-16T16:48:40.852Z,13.68
2019-05-16T16:51:11.286Z,21.10
2019-05-16T16:53:46.789Z,15.38
2019-05-16T16:56:17.548Z,15.50
2019-05-16T16:58:53.498Z,14.83
2019-05-16T17:01:27.208Z,15.75
2019-05-16T17:04:02.009Z,15.13
2019-05-16T17:06:37.253Z,15.05
2019-05-16T17:09:12.067Z,14.93
2019-05-16T17:11:46.545Z,17.33
2019-05-16T17:14:17.365Z,15.93
2019-05-16T17:16:47.519Z,15.40
2019-05-16T17:19:17.115Z,15.15
2019-05-16T17:22:01.991Z,15.60
2019-05-16T17:24:21.225Z,16.33
2019-05-16T17:26:54.598Z,17.37
2019-05-16T17:29:28.122Z,22.30
2019-05-16T17:32:20.831Z,18.50
2019-05-16T17:34:58.510Z,16.20
2019-05-16T17:37:30.365Z,16.45
2019-05-16T17:40:00.820Z,16.83
2019-05-16T17:42:30.686Z,16.57
2019-05-16T17:45:00.190Z,17.67
2019-05-16T17:47:37.060Z,16.57
2019-05-16T17:50:08.804Z,18.40
2019-05-16T17:52:38.779Z,17.80
2019-05-16T17:55:08.815Z,16.30
2019-05-16T17:57:43.654Z,16.93
2019-05-16T18:00:28.062Z,18.07
2019-05-16T18:03:01.459Z,20.27
2019-05-16T18:05:31.732Z,20.97
2019-05-16T18:08:02.341Z,20.63
2019-05-16T18:10:36.470Z,21.57
2019-05-16T18:13:08.081Z,21.23
2019-05-16T18:15:39.066Z,21.57
2019-05-16T18:18:08.537Z,21.97
2019-05-16T18:20:54.919Z,22.77
2019-05-16T18:23:16.438Z,22.77
2019-05-16T18:25:46.988Z,24.23
2019-05-16T18:28:17.575Z,24.93
2019-05-16T18:30:47.466Z,24.73
2019-05-16T18:33:18.133Z,24.80
2019-05-16T18:35:48.764Z,25.50
2019-05-16T18:38:26.187Z,25.90
2019-05-16T18:40:56.615Z,25.80
2019-05-16T18:43:30.807Z,26.00
2019-05-16T18:46:00.329Z,26.77
2019-05-16T18:48:29.899Z,26.50
2019-05-16T18:50:59.353Z,28.17
2019-05-16T18:53:29.513Z,27.70
2019-05-16T18:55:59.030Z,27.87
2019-05-16T18:58:28.482Z,27.40
2019-05-16T19:00:57.977Z,30.13
2019-05-16T19:03:27.627Z,30.57
2019-05-16T19:05:58.819Z,31.93
2019-05-16T19:08:28.943Z,32.87
2019-05-16T19:10:59.973Z,34.33
2019-05-16T19:13:29.761Z,34.50
2019-05-16T19:15:59.245Z,34.03
2019-05-16T19:18:28.752Z,33.40
2019-05-16T19:21:00.386Z,34.73
2019-05-16T19:23:31.417Z,36.40
2019-05-16T19:26:00.856Z,38.00
2019-05-16T19:28:31.151Z,37.80
2019-05-16T19:31:00.667Z,37.50
2019-05-16T19:33:31.977Z,36.53
2019-05-16T19:36:02.699Z,36.30
2019-05-16T19:38:33.155Z,38.03
2019-05-16T19:41:02.591Z,37.73
2019-05-16T19:43:33.258Z,37.37
2019-05-16T19:46:05.928Z,37.73
2019-05-16T19:48:38.835Z,38.87
2019-05-16T19:51:12.420Z,40.07
2019-05-16T19:53:41.891Z,36.37
2019-05-16T19:56:11.439Z,36.07
2019-05-16T19:58:41.829Z,36.70
2019-05-16T20:01:12.539Z,36.03
2019-05-16T20:03:42.065Z,36.00
2019-05-16T20:06:11.613Z,35.63
2019-05-16T20:08:42.718Z,34.90
2019-05-16T20:11:12.382Z,36.10
2019-05-16T20:13:42.080Z,36.40
2019-05-16T20:16:11.587Z,34.10
2019-05-16T20:18:41.074Z,35.67
2019-05-16T20:21:10.537Z,34.33
2019-05-16T20:23:40.014Z,33.50
2019-05-16T20:26:13.359Z,34.27
2019-05-16T20:28:42.971Z,34.47
2019-05-16T20:31:12.550Z,34.20
2019-05-16T20:33:42.181Z,35.77
2019-05-16T20:36:11.729Z,33.67
2019-05-16T20:38:41.285Z,30.13
2019-05-16T20:41:12.025Z,32.10
2019-05-16T20:43:43.672Z,31.73
2019-05-16T20:46:21.949Z,31.50
2019-05-16T20:48:59.047Z,29.73
2019-05-16T20:51:32.185Z,30.60
2019-05-16T20:54:01.688Z,31.60
2019-05-16T20:56:31.202Z,32.53
2019-05-16T20:59:01.033Z,31.50
2019-05-16T21:01:32.148Z,31.30
2019-05-16T21:04:03.073Z,32.00
2019-05-16T21:06:36.808Z,33.37
2019-05-16T21:09:12.489Z,32.40
2019-05-16T21:11:41.944Z,32.03
2019-05-16T21:14:16.314Z,32.10
2019-05-16T21:16:46.538Z,33.17
2019-05-16T21:19:16.480Z,32.47
2019-05-16T21:21:47.568Z,31.07
2019-05-16T21:24:22.162Z,30.70
2019-05-16T21:26:54.071Z,28.90
2019-05-16T21:29:27.503Z,28.20
2019-05-16T21:31:56.581Z,27.67
2019-05-16T21:34:27.204Z,29.33
2019-05-16T21:37:11.315Z,29.17
2019-05-16T21:39:32.186Z,26.43
2019-05-16T21:42:04.239Z,27.63
2019-05-16T21:44:37.460Z,27.40
2019-05-16T21:47:09.510Z,26.83
2019-05-16T21:49:43.392Z,25.83
2019-05-16T21:52:19.380Z,25.43
2019-05-16T21:54:56.651Z,24.23
2019-05-16T21:57:26.785Z,23.87
2019-05-16T21:59:57.209Z,24.23
2019-05-16T22:02:26.929Z,24.03
2019-05-16T22:05:01.393Z,23.53
2019-05-16T22:07:36.393Z,23.30
2019-05-16T22:10:09.085Z,23.20
2019-05-16T22:12:40.932Z,22.57
2019-05-16T22:15:12.220Z,22.17
2019-05-16T22:17:43.553Z,21.40
2019-05-16T22:20:13.510Z,21.60
2019-05-16T22:22:47.197Z,20.87
2019-05-16T22:25:21.004Z,21.10
2019-05-16T22:27:50.489Z,21.13
2019-05-16T22:30:23.231Z,20.20
2019-05-16T22:32:54.313Z,20.77
2019-05-16T22:35:27.421Z,20.60
2019-05-16T22:38:03.025Z,19.60
2019-05-16T22:40:37.310Z,18.87
2019-05-16T22:43:10.297Z,17.27
2019-05-16T22:45:40.659Z,16.87
2019-05-16T22:48:10.239Z,15.53
2019-05-16T22:50:41.857Z,15.30
2019-05-16T22:53:12.858Z,15.23
2019-05-16T22:55:42.300Z,14.50
2019-05-16T22:58:16.932Z,15.80
2019-05-16T23:00:50.537Z,13.90
2019-05-16T23:03:20.807Z,13.13
2019-05-16T23:05:50.316Z,13.47
2019-05-16T23:08:20.626Z,13.10
2019-05-16T23:10:51.783Z,13.50
2019-05-16T23:13:21.280Z,13.37
2019-05-16T23:15:54.344Z,13.73
2019-05-16T23:18:26.726Z,13.10
2019-05-16T23:20:56.957Z,14.40
2019-05-16T23:23:27.777Z,14.53
2019-05-16T23:25:57.169Z,14.83
2019-05-16T23:28:27.652Z,14.77
2019-05-16T23:30:57.866Z,14.23
2019-05-16T23:33:29.293Z,14.03
2019-05-16T23:35:58.648Z,13.23
2019-05-16T23:38:28.095Z,14.17
2019-05-16T23:40:58.143Z,14.00
2019-05-16T23:43:27.585Z,13.90
2019-05-16T23:45:57.037Z,14.07
2019-05-16T23:48:29.505Z,14.80
2019-05-16T23:50:58.983Z,14.90
2019-05-16T23:53:30.854Z,14.37
2019-05-16T23:56:01.324Z,14.50
2019-05-16T23:58:31.363Z,14.27
